Time;durP1;ratioP1;P1;durP2;ratioP2;P2;SDS_P1;SDS_P2;PMS_P1;PMS_P2;Temp;Humidity;BMP_temperature;BMP_pressure;BME280_temperature;BME280_humidity;BME280_pressure;Samples;Min_cycle;Max_cycle;Signal;HPM_P1;HPM_P2
2023/04/09 00:01:22;;;;;;;1.27;0.90;;;8.60;99.00;;;;;;5095736;28;20036;-87
2023/04/09 00:03:47;;;;;;;6.15;0.73;;;8.70;98.50;;;;;;5096103;28;20507;-86
2023/04/09 00:06:13;;;;;;;3.10;0.73;;;8.70;98.70;;;;;;5079227;28;20043;-87
2023/04/09 00:08:39;;;;;;;0.40;0.40;;;8.70;99.30;;;;;;5095415;28;20078;-87
2023/04/09 00:11:04;;;;;;;0.70;0.70;;;8.70;98.80;;;;;;5078983;28;20459;-87
2023/04/09 00:13:30;;;;;;;1.35;0.98;;;8.60;98.90;;;;;;5064230;28;20040;-87
2023/04/09 00:15:56;;;;;;;1.52;0.95;;;8.60;98.70;;;;;;5079888;28;20074;-88
2023/04/09 00:18:21;;;;;;;3.83;0.50;;;8.60;99.00;;;;;;5078919;28;20475;-87
2023/04/09 00:20:47;;;;;;;0.70;0.43;;;8.60;99.20;;;;;;5062499;28;20042;-87
2023/04/09 00:23:13;;;;;;;1.38;1.27;;;8.60;99.30;;;;;;5095683;28;20482;-87
2023/04/09 00:25:39;;;;;;;0.77;0.68;;;8.60;99.10;;;;;;5060774;28;20139;-88
2023/04/09 00:28:04;;;;;;;2.30;2.08;;;8.70;98.90;;;;;;5078424;28;20097;-88
2023/04/09 00:30:30;;;;;;;0.40;0.40;;;8.60;99.20;;;;;;5095186;28;20048;-88
2023/04/09 00:32:56;;;;;;;2.08;0.95;;;8.60;99.70;;;;;;5095257;28;20105;-87
2023/04/09 00:35:22;;;;;;;1.50;1.40;;;8.60;99.30;;;;;;5061605;28;20048;-88
2023/04/09 00:37:48;;;;;;;2.83;0.75;;;8.60;99.30;;;;;;5094821;28;20051;-88
2023/04/09 00:40:14;;;;;;;0.80;0.20;;;8.60;99.70;;;;;;5094883;28;20044;-87
2023/04/09 00:42:40;;;;;;;1.85;1.35;;;8.60;99.30;;;;;;5077679;28;20100;-87
2023/04/09 00:45:07;;;;;;;29.25;2.92;;;8.60;98.70;;;;;;5060942;28;20055;-88
2023/04/09 00:47:34;;;;;;;5.43;0.80;;;8.50;98.00;;;;;;5094669;28;20044;-87
2023/04/09 00:50:00;;;;;;;1.20;0.73;;;8.50;98.80;;;;;;5094248;28;20040;-87
2023/04/09 00:52:29;;;;;;;1.13;1.02;;;8.50;99.30;;;;;;5094490;28;20628;-88
2023/04/09 00:54:56;;;;;;;1.90;1.30;;;8.50;99.10;;;;;;5094592;28;20500;-87
2023/04/09 00:57:21;;;;;;;4.93;1.08;;;8.50;99.90;;;;;;5060658;28;20137;-88
2023/04/09 00:59:47;;;;;;;0.45;0.45;;;8.50;99.90;;;;;;5077715;28;20094;-88
2023/04/09 01:02:13;;;;;;;0.10;0.10;;;8.40;99.90;;;;;;5094510;28;20172;-87
2023/04/09 01:04:41;;;;;;;3.10;0.60;;;8.50;99.90;;;;;;5060654;28;20044;-88
2023/04/09 01:07:46;;;;;;;2.72;0.22;;;8.50;99.90;;;;;;5077515;28;20036;-87
2023/04/09 01:10:56;;;;;;;2.80;0.88;;;8.50;99.90;;;;;;5074768;28;20052;-88
2023/04/09 01:13:24;;;;;;;2.13;0.75;;;8.40;99.90;;;;;;5075090;28;20091;-87
2023/04/09 01:15:56;;;;;;;1.00;0.82;;;8.40;99.90;;;;;;5093671;28;20040;-87
2023/04/09 01:18:31;;;;;;;0.20;0.20;;;8.40;99.90;;;;;;5094151;28;20048;-87
2023/04/09 01:21:02;;;;;;;1.67;1.10;;;8.40;99.90;;;;;;5094597;28;20055;-88
2023/04/09 01:23:52;;;;;;;2.78;1.42;;;8.40;99.90;;;;;;5077548;28;20048;-87
2023/04/09 01:26:48;;;;;;;0.20;0.20;;;8.40;99.90;;;;;;5093862;28;20051;-87
2023/04/09 01:29:16;;;;;;;0.85;0.50;;;8.40;99.90;;;;;;5093976;28;20052;-87
2023/04/09 01:31:43;;;;;;;0.32;0.32;;;8.40;99.90;;;;;;5060760;28;20458;-87
2023/04/09 01:34:09;;;;;;;0.10;0.10;;;8.40;99.90;;;;;;5076890;28;20113;-87
2023/04/09 01:36:36;;;;;;;4.43;0.43;;;8.40;99.90;;;;;;5076760;28;20462;-87
2023/04/09 01:39:03;;;;;;;0.50;0.20;;;8.40;99.90;;;;;;5059807;28;20408;-87
2023/04/09 01:41:31;;;;;;;0.10;0.10;;;8.40;99.90;;;;;;5076993;28;20055;-88
2023/04/09 01:44:00;;;;;;;0.90;0.32;;;8.40;99.90;;;;;;5093261;28;20059;-87
2023/04/09 01:46:26;;;;;;;0.22;0.15;;;8.40;99.90;;;;;;5093916;28;20047;-87
2023/04/09 01:48:52;;;;;;;0.10;0.10;;;8.40;99.90;;;;;;5093484;28;20047;-87
2023/04/09 01:51:18;;;;;;;0.50;0.45;;;8.40;99.90;;;;;;5093593;28;20052;-87
2023/04/09 01:53:44;;;;;;;0.40;0.40;;;8.40;99.90;;;;;;5076411;28;20499;-87
2023/04/09 01:56:10;;;;;;;5.07;0.63;;;8.40;99.90;;;;;;5076310;28;20044;-87
2023/04/09 01:58:35;;;;;;;1.08;0.98;;;8.40;99.90;;;;;;5093534;28;20044;-87
2023/04/09 02:01:10;;;;;;;1.92;1.38;;;8.40;99.90;;;;;;5076552;28;20059;-88
2023/04/09 02:04:02;;;;;;;1.17;1.00;;;8.40;99.90;;;;;;5093158;28;20051;-87
2023/04/09 02:06:34;;;;;;;2.15;0.88;;;8.40;99.90;;;;;;5088263;28;20056;-87
2023/04/09 02:09:01;;;;;;;0.52;0.52;;;8.30;99.90;;;;;;5075997;28;20404;-87
2023/04/09 02:11:29;;;;;;;2.90;1.95;;;8.40;99.90;;;;;;5076169;28;20059;-87
2023/04/09 02:13:56;;;;;;;0.60;0.17;;;8.40;99.90;;;;;;5092625;28;20471;-88
2023/04/09 02:16:23;;;;;;;5.32;1.38;;;8.30;99.90;;;;;;5075867;28;20507;-88
2023/04/09 02:18:54;;;;;;;0.73;0.38;;;8.30;99.90;;;;;;5075855;28;20036;-87
2023/04/09 02:21:21;;;;;;;1.52;1.17;;;8.30;99.90;;;;;;5093123;28;20475;-87
2023/04/09 02:23:47;;;;;;;4.18;1.90;;;8.30;99.90;;;;;;5093098;28;20044;-87
2023/04/09 02:26:13;;;;;;;0.60;0.60;;;8.30;99.90;;;;;;5092935;28;20047;-87
2023/04/09 02:28:38;;;;;;;1.23;0.60;;;8.30;99.90;;;;;;5042687;28;20131;-88
2023/04/09 02:31:04;;;;;;;0.88;0.13;;;8.30;99.90;;;;;;5059399;28;20039;-87
2023/04/09 02:33:30;;;;;;;0.68;0.68;;;8.30;99.90;;;;;;5092645;28;20091;-87
2023/04/09 02:35:55;;;;;;;0.52;0.52;;;8.30;99.90;;;;;;5092884;28;20054;-88
2023/04/09 02:38:21;;;;;;;2.35;1.10;;;8.30;99.90;;;;;;5092697;28;20484;-88
2023/04/09 02:40:47;;;;;;;0.90;0.82;;;8.30;99.90;;;;;;5075821;28;20066;-87
2023/04/09 02:43:13;;;;;;;3.58;1.52;;;8.30;99.90;;;;;;5075671;28;20052;-87
2023/04/09 02:45:38;;;;;;;1.40;0.73;;;8.20;99.90;;;;;;5075320;28;20081;-87
2023/04/09 02:48:04;;;;;;;0.88;0.40;;;8.20;99.90;;;;;;5076687;28;20396;-88
2023/04/09 02:50:30;;;;;;;2.65;1.42;;;8.20;99.90;;;;;;5046581;28;20455;-88
2023/04/09 02:52:56;;;;;;;1.98;0.17;;;8.20;99.90;;;;;;5096953;28;20052;-87
2023/04/09 02:55:22;;;;;;;2.28;1.27;;;8.20;99.90;;;;;;5063495;28;20503;-87
2023/04/09 02:57:47;;;;;;;1.80;0.80;;;8.20;99.90;;;;;;5096862;28;20418;-87
2023/04/09 03:00:13;;;;;;;3.25;0.80;;;8.20;99.90;;;;;;5096559;28;20058;-87
2023/04/09 03:02:39;;;;;;;0.57;0.50;;;8.10;99.90;;;;;;5079886;28;20054;-88
2023/04/09 03:05:05;;;;;;;0.85;0.60;;;8.20;99.90;;;;;;5062901;28;20043;-87
2023/04/09 03:07:31;;;;;;;2.60;0.88;;;8.20;99.90;;;;;;5063186;28;20052;-87
2023/04/09 03:09:57;;;;;;;0.30;0.30;;;8.20;99.90;;;;;;5096458;28;20376;-87
2023/04/09 03:12:22;;;;;;;0.22;0.10;;;8.20;99.90;;;;;;5096572;28;20131;-86
2023/04/09 03:14:48;;;;;;;0.30;0.30;;;8.20;99.90;;;;;;5079072;28;20460;-87
2023/04/09 03:17:14;;;;;;;0.20;0.20;;;8.20;99.90;;;;;;5095987;28;20131;-87
2023/04/09 03:19:40;;;;;;;0.65;0.57;;;8.20;99.90;;;;;;5096385;28;20122;-87
2023/04/09 03:22:05;;;;;;;1.92;1.75;;;8.20;99.90;;;;;;5096448;28;20442;-87
2023/04/09 03:24:32;;;;;;;0.82;0.63;;;8.10;99.90;;;;;;5062882;28;20421;-87
2023/04/09 03:26:58;;;;;;;0.65;0.55;;;8.10;99.90;;;;;;5096202;28;20044;-88
2023/04/09 03:29:23;;;;;;;5.47;0.40;;;8.10;99.90;;;;;;5079089;28;20054;-87
2023/04/09 03:31:49;;;;;;;0.77;0.65;;;8.10;99.90;;;;;;5079230;28;20044;-87
2023/04/09 03:34:15;;;;;;;3.53;1.92;;;8.10;99.90;;;;;;5096229;28;20055;-88
2023/04/09 03:36:40;;;;;;;2.38;0.63;;;8.10;99.90;;;;;;5095897;28;20088;-87
2023/04/09 03:39:06;;;;;;;0.52;0.30;;;8.10;99.90;;;;;;5079030;28;20067;-88
2023/04/09 03:41:32;;;;;;;0.35;0.35;;;8.10;99.90;;;;;;5079050;28;20051;-88
2023/04/09 03:43:58;;;;;;;2.47;1.45;;;8.00;99.90;;;;;;5095447;28;20047;-87
2023/04/09 03:46:24;;;;;;;1.10;0.55;;;7.90;99.90;;;;;;5062144;28;20050;-87
2023/04/09 03:48:50;;;;;;;9.75;2.10;;;8.00;99.90;;;;;;5078936;28;20048;-88
2023/04/09 03:51:16;;;;;;;0.80;0.57;;;8.00;99.90;;;;;;5078919;28;20043;-87
2023/04/09 03:53:43;;;;;;;2.33;1.10;;;8.00;99.90;;;;;;5095871;28;20044;-87
2023/04/09 03:56:09;;;;;;;1.55;0.85;;;8.00;99.90;;;;;;5078631;28;20055;-88
2023/04/09 03:58:36;;;;;;;1.55;0.38;;;8.10;99.90;;;;;;5095598;28;20070;-87
2023/04/09 04:01:02;;;;;;;2.45;1.45;;;8.00;99.90;;;;;;5078671;28;20086;-88
2023/04/09 04:03:28;;;;;;;0.38;0.38;;;8.10;99.90;;;;;;5078710;28;20083;-87
2023/04/09 04:05:59;;;;;;;0.20;0.20;;;8.10;99.90;;;;;;5095565;28;20068;-87
2023/04/09 04:08:24;;;;;;;1.40;0.60;;;8.10;99.90;;;;;;5095227;28;20511;-87
2023/04/09 04:10:50;;;;;;;1.05;0.80;;;8.10;99.90;;;;;;5077927;28;20099;-87
2023/04/09 04:13:16;;;;;;;0.57;0.57;;;8.10;99.90;;;;;;5095356;28;20044;-87
2023/04/09 04:15:41;;;;;;;0.85;0.85;;;8.10;99.90;;;;;;5094925;28;20044;-87
2023/04/09 04:18:10;;;;;;;0.77;0.57;;;8.10;99.90;;;;;;5078618;28;20462;-87
2023/04/09 04:20:37;;;;;;;1.10;0.80;;;8.10;99.90;;;;;;5078736;28;20055;-87
2023/04/09 04:23:03;;;;;;;0.30;0.30;;;8.00;99.90;;;;;;5095230;28;20518;-87
2023/04/09 04:25:29;;;;;;;1.35;0.47;;;8.00;99.90;;;;;;5095050;28;20059;-87
2023/04/09 04:27:55;;;;;;;0.63;0.40;;;8.00;99.90;;;;;;5093887;28;20087;-87
2023/04/09 04:30:21;;;;;;;1.90;0.73;;;8.00;99.90;;;;;;5077677;28;20036;-88
2023/04/09 04:32:47;;;;;;;3.03;0.90;;;8.10;99.80;;;;;;5095088;28;20093;-88
2023/04/09 04:35:13;;;;;;;8.27;0.88;;;8.10;99.90;;;;;;5078006;28;20055;-87
2023/04/09 04:37:39;;;;;;;0.38;0.38;;;8.00;99.40;;;;;;5077959;28;20044;-88
2023/04/09 04:40:06;;;;;;;1.90;0.30;;;8.10;99.50;;;;;;5078079;28;20131;-88
2023/04/09 04:42:32;;;;;;;5.45;1.30;;;8.00;99.60;;;;;;5078040;28;20123;-88
2023/04/09 04:44:58;;;;;;;4.68;1.40;;;8.00;98.50;;;;;;5077613;28;20059;-88
2023/04/09 04:47:24;;;;;;;0.82;0.80;;;8.10;99.00;;;;;;5095299;28;20055;-88
2023/04/09 04:49:50;;;;;;;1.25;0.60;;;8.10;99.00;;;;;;5077635;28;20097;-88
2023/04/09 04:52:15;;;;;;;5.32;1.20;;;8.10;98.00;;;;;;5077905;28;20048;-88
2023/04/09 04:54:41;;;;;;;0.98;0.95;;;8.10;98.20;;;;;;5094568;28;20044;-88
2023/04/09 04:57:07;;;;;;;1.75;0.50;;;8.00;97.90;;;;;;5044344;28;20135;-88
2023/04/09 04:59:35;;;;;;;0.52;0.40;;;8.10;98.10;;;;;;5078105;28;20074;-88
2023/04/09 05:02:01;;;;;;;0.22;0.22;;;8.10;98.00;;;;;;5078245;28;20148;-88
2023/04/09 05:04:27;;;;;;;0.43;0.43;;;8.10;98.20;;;;;;5061023;28;20056;-89
2023/04/09 05:06:52;;;;;;;1.08;1.00;;;8.10;98.40;;;;;;5094212;28;20052;-87
2023/04/09 05:09:18;;;;;;;0.40;0.40;;;8.10;98.00;;;;;;5043558;28;20571;-87
2023/04/09 05:11:44;;;;;;;0.47;0.30;;;8.10;97.50;;;;;;5076998;28;20068;-92
2023/04/09 05:14:09;;;;;;;0.98;0.47;;;8.10;96.80;;;;;;5094621;28;20072;-92
2023/04/09 05:16:35;;;;;;;0.75;0.20;;;8.10;97.40;;;;;;5061419;28;20536;-93
2023/04/09 05:19:01;;;;;;;4.22;0.88;;;8.10;97.20;;;;;;5078168;28;20576;-92
2023/04/09 05:21:27;;;;;;;1.27;0.85;;;8.00;96.60;;;;;;5095118;28;20414;-93
2023/04/09 05:23:53;;;;;;;2.53;1.77;;;8.10;97.10;;;;;;5078240;28;20071;-93
2023/04/09 05:26:20;;;;;;;1.25;1.17;;;8.10;96.90;;;;;;5061489;28;20052;-95
2023/04/09 05:28:46;;;;;;;0.15;0.15;;;8.20;97.30;;;;;;5078689;28;20100;-95
2023/04/09 05:31:12;;;;;;;1.15;0.85;;;8.10;97.10;;;;;;5061905;28;20044;-93
2023/04/09 05:33:38;;;;;;;0.50;0.40;;;8.10;96.70;;;;;;5078326;28;20055;-94
2023/04/09 05:36:04;;;;;;;1.98;1.70;;;8.10;96.50;;;;;;5078029;28;20040;-94
2023/04/09 05:38:30;;;;;;;1.98;0.15;;;8.10;97.00;;;;;;5094879;28;20051;-94
2023/04/09 05:40:56;;;;;;;0.50;0.50;;;8.10;97.20;;;;;;5060227;28;20044;-87
2023/04/09 05:43:22;;;;;;;1.02;0.20;;;8.10;97.20;;;;;;5076811;28;20044;-88
2023/04/09 05:45:47;;;;;;;1.02;0.60;;;8.10;97.40;;;;;;5093353;28;20056;-88
2023/04/09 05:48:13;;;;;;;1.38;0.60;;;8.10;97.40;;;;;;5076668;28;20083;-88
2023/04/09 05:50:39;;;;;;;0.40;0.40;;;8.10;97.30;;;;;;5059831;28;20035;-88
2023/04/09 05:53:05;;;;;;;0.73;0.73;;;8.10;98.00;;;;;;5076593;28;20365;-88
2023/04/09 05:55:31;;;;;;;2.05;0.95;;;8.10;97.50;;;;;;5093468;28;20048;-88
2023/04/09 05:57:57;;;;;;;0.80;0.80;;;8.10;96.70;;;;;;5093508;28;20147;-88
2023/04/09 06:00:23;;;;;;;0.82;0.60;;;8.10;95.00;;;;;;5093489;28;20496;-88
2023/04/09 06:02:49;;;;;;;2.15;0.55;;;8.20;96.20;;;;;;5093142;28;20063;-88
2023/04/09 06:05:15;;;;;;;1.13;1.08;;;8.20;95.40;;;;;;5093112;28;20044;-88
2023/04/09 06:07:40;;;;;;;2.90;1.33;;;8.20;95.60;;;;;;5093138;28;20105;-88
2023/04/09 06:10:07;;;;;;;1.15;0.88;;;8.30;95.60;;;;;;5092339;28;20056;-88
2023/04/09 06:12:35;;;;;;;2.25;0.70;;;8.30;96.00;;;;;;5076473;28;20055;-91
2023/04/09 06:15:02;;;;;;;0.75;0.75;;;8.40;96.70;;;;;;5076071;28;20052;-90
2023/04/09 06:17:28;;;;;;;1.45;1.20;;;8.60;97.40;;;;;;5093200;28;20050;-90
2023/04/09 06:19:54;;;;;;;0.50;0.50;;;8.70;98.00;;;;;;5076403;28;20054;-89
2023/04/09 06:22:20;;;;;;;0.13;0.13;;;8.90;97.30;;;;;;5059607;28;20066;-90
2023/04/09 06:24:45;;;;;;;2.58;2.38;;;9.10;94.80;;;;;;5092265;28;20083;-87
2023/04/09 06:27:11;;;;;;;1.38;0.95;;;9.20;94.30;;;;;;5059419;28;20097;-87
2023/04/09 06:29:37;;;;;;;1.77;1.25;;;9.30;94.40;;;;;;5092511;28;20127;-88
2023/04/09 06:32:03;;;;;;;5.80;2.40;;;9.30;91.90;;;;;;5059735;28;20036;-89
2023/04/09 06:34:29;;;;;;;2.60;1.75;;;9.50;93.50;;;;;;5092950;28;20457;-90
2023/04/09 06:36:54;;;;;;;3.05;1.75;;;9.80;93.60;;;;;;5075915;28;20044;-89
2023/04/09 06:39:20;;;;;;;1.65;0.57;;;10.00;91.90;;;;;;5075845;28;20044;-88
2023/04/09 06:41:46;;;;;;;1.77;0.35;;;10.10;88.70;;;;;;5043032;28;20079;-87
2023/04/09 06:44:12;;;;;;;0.95;0.88;;;10.20;87.20;;;;;;5075884;28;20546;-88
2023/04/09 06:46:38;;;;;;;2.08;1.85;;;10.40;84.80;;;;;;5092850;28;20071;-89
2023/04/09 06:49:04;;;;;;;0.40;0.40;;;10.40;80.10;;;;;;5092760;28;20048;-88
2023/04/09 06:51:30;;;;;;;2.08;1.20;;;10.70;77.00;;;;;;5092684;28;20044;-88
2023/04/09 06:53:56;;;;;;;9.32;2.65;;;11.00;75.90;;;;;;5092801;28;20055;-89
2023/04/09 06:56:22;;;;;;;1.80;1.70;;;11.50;66.10;;;;;;5076198;28;20572;-89
2023/04/09 06:58:47;;;;;;;2.13;1.73;;;12.10;64.70;;;;;;5092866;28;20040;-89
2023/04/09 07:01:13;;;;;;;2.70;0.85;;;12.50;36.80;;;;;;5075897;28;20102;-89
2023/04/09 07:03:39;;;;;;;2.80;1.25;;;13.00;24.40;;;;;;5075920;28;20052;-89
2023/04/09 07:06:05;;;;;;;2.47;2.33;;;13.20;19.40;;;;;;5059074;28;20051;-89
2023/04/09 07:08:31;;;;;;;5.25;1.00;;;13.10;1.00;;;;;;5075972;28;20170;-87
2023/04/09 07:10:56;;;;;;;0.28;0.28;;;12.80;1.00;;;;;;5075692;28;20144;-86
2023/04/09 07:13:22;;;;;;;1.25;0.82;;;13.00;11.90;;;;;;5092702;28;20086;-86
2023/04/09 07:15:48;;;;;;;1.52;1.05;;;13.20;1.00;;;;;;5071397;28;20047;-87
2023/04/09 07:18:14;;;;;;;4.45;1.95;;;13.60;1.00;;;;;;5055688;28;20044;-88
2023/04/09 07:20:39;;;;;;;2.40;2.20;;;14.00;1.00;;;;;;5038777;28;20439;-89
2023/04/09 07:23:05;;;;;;;3.67;1.38;;;14.30;1.00;;;;;;5055607;28;20056;-88
2023/04/09 07:25:31;;;;;;;0.88;0.88;;;14.70;1.00;;;;;;5072879;28;20381;-88
2023/04/09 07:27:57;;;;;;;1.83;0.80;;;14.90;1.00;;;;;;5072225;28;20395;-89
2023/04/09 07:30:23;;;;;;;4.10;1.13;;;15.20;1.00;;;;;;5055338;28;20048;-86
2023/04/09 07:32:49;;;;;;;1.08;0.98;;;15.60;1.00;;;;;;5038800;28;20078;-87
2023/04/09 07:35:15;;;;;;;15.18;2.15;;;15.80;99.90;;;;;;5073725;28;20051;-88
2023/04/09 07:37:40;;;;;;;5.65;0.85;;;15.60;99.90;;;;;;5042643;28;20396;-88
2023/04/09 07:40:07;;;;;;;2.97;2.10;;;15.20;99.90;;;;;;5059008;28;20400;-85
2023/04/09 07:42:32;;;;;;;4.53;1.90;;;15.00;99.90;;;;;;5046085;28;20063;-85
2023/04/09 07:44:59;;;;;;;0.60;0.60;;;14.80;99.90;;;;;;5072564;28;20045;-86
2023/04/09 07:47:25;;;;;;;0.95;0.95;;;14.60;99.90;;;;;;5058918;28;20141;-86
2023/04/09 07:49:51;;;;;;;3.00;2.80;;;14.50;1.00;;;;;;5074982;28;20193;-86
2023/04/09 07:52:18;;;;;;;1.20;1.00;;;14.60;1.00;;;;;;5062209;28;20555;-86
2023/04/09 07:54:44;;;;;;;3.40;2.20;;;14.50;99.90;;;;;;5078911;28;20131;-86
2023/04/09 07:57:09;;;;;;;1.20;1.10;;;14.40;99.90;;;;;;5078941;28;20201;-85
2023/04/09 07:59:35;;;;;;;11.00;1.63;;;14.40;1.00;;;;;;5095844;28;20040;-86
2023/04/09 08:02:01;;;;;;;3.30;1.95;;;14.40;1.00;;;;;;5095528;28;20051;-86
2023/04/09 08:04:27;;;;;;;0.65;0.63;;;14.40;1.00;;;;;;5095334;28;20050;-86
2023/04/09 08:06:54;;;;;;;0.77;0.77;;;14.30;99.90;;;;;;5078460;28;20052;-85
2023/04/09 08:09:20;;;;;;;1.48;1.42;;;14.10;1.00;;;;;;5101670;28;20056;-85
2023/04/09 08:11:47;;;;;;;2.30;2.20;;;13.80;1.00;;;;;;5098716;28;20135;-86
2023/04/09 08:14:15;;;;;;;1.83;1.27;;;13.30;1.00;;;;;;5081601;28;20047;-85
2023/04/09 08:16:42;;;;;;;2.13;1.98;;;13.20;1.00;;;;;;5115726;28;20467;-85
2023/04/09 08:19:09;;;;;;;3.97;1.63;;;12.80;1.00;;;;;;5115654;28;20043;-86
2023/04/09 08:21:45;;;;;;;2.97;1.65;;;12.90;1.00;;;;;;5098557;28;20059;-86
2023/04/09 08:24:10;;;;;;;2.10;1.80;;;12.80;1.00;;;;;;5115379;28;20123;-85
2023/04/09 08:26:37;;;;;;;2.00;1.90;;;12.90;1.00;;;;;;5115492;28;20130;-85
2023/04/09 08:29:03;;;;;;;2.17;1.63;;;12.90;1.00;;;;;;5098363;28;20047;-85
2023/04/09 08:31:29;;;;;;;1.77;1.35;;;12.80;1.00;;;;;;5098649;28;20044;-86
2023/04/09 08:33:55;;;;;;;5.32;1.58;;;13.00;1.00;;;;;;5081473;28;20395;-85
2023/04/09 08:36:21;;;;;;;0.88;0.88;;;12.90;1.00;;;;;;5098124;28;20054;-85
2023/04/09 08:38:47;;;;;;;1.85;1.75;;;12.70;1.00;;;;;;5098379;28;20039;-85
2023/04/09 08:41:18;;;;;;;1.65;1.55;;;12.60;1.00;;;;;;5115014;28;20044;-85
2023/04/09 08:43:46;;;;;;;1.17;1.13;;;12.50;1.00;;;;;;5115476;28;20093;-86
2023/04/09 08:46:14;;;;;;;9.77;2.38;;;12.60;1.00;;;;;;5114904;28;20111;-85
2023/04/09 08:48:46;;;;;;;3.60;3.30;;;12.70;1.00;;;;;;5098223;28;20047;-86
2023/04/09 08:51:16;;;;;;;1.23;1.13;;;12.80;1.00;;;;;;5098251;28;20043;-86
2023/04/09 08:53:46;;;;;;;2.65;1.73;;;13.00;1.00;;;;;;5081915;28;20051;-85
2023/04/09 08:56:13;;;;;;;1.85;1.75;;;13.10;1.00;;;;;;5097927;28;20051;-85
2023/04/09 08:58:43;;;;;;;0.88;0.88;;;13.20;1.00;;;;;;5114908;28;20047;-86
2023/04/09 09:01:20;;;;;;;4.25;2.35;;;13.30;1.00;;;;;;5097670;28;20051;-86
2023/04/09 09:03:59;;;;;;;1.45;1.25;;;13.40;1.00;;;;;;5098028;28;20093;-85
2023/04/09 09:06:27;;;;;;;0.75;0.75;;;13.60;1.00;;;;;;5097688;28;20513;-86
2023/04/09 09:09:09;;;;;;;4.85;2.05;;;13.80;1.00;;;;;;5097505;28;20479;-86
2023/04/09 09:11:40;;;;;;;3.83;2.22;;;14.00;1.00;;;;;;5114526;28;20159;-86
2023/04/09 09:14:07;;;;;;;4.18;2.75;;;13.90;1.00;;;;;;5114954;28;20368;-85
2023/04/09 09:16:35;;;;;;;3.33;1.75;;;13.90;1.00;;;;;;5114246;28;20036;-86
2023/04/09 09:19:01;;;;;;;3.85;2.50;;;14.10;1.00;;;;;;5097551;28;20058;-85
2023/04/09 09:21:28;;;;;;;2.58;0.68;;;14.30;1.00;;;;;;5080811;28;20055;-85
2023/04/09 09:23:55;;;;;;;1.50;1.40;;;14.50;1.00;;;;;;5097264;28;20078;-86
2023/04/09 09:26:23;;;;;;;3.60;1.95;;;14.70;1.00;;;;;;5097267;28;20112;-85
2023/04/09 09:28:49;;;;;;;3.63;1.77;;;14.90;1.00;;;;;;5097254;28;20051;-86
2023/04/09 09:31:18;;;;;;;2.10;2.00;;;14.80;99.90;;;;;;5114341;28;20451;-85
2023/04/09 09:33:45;;;;;;;0.63;0.63;;;14.80;99.90;;;;;;5097273;28;20051;-85
2023/04/09 09:36:10;;;;;;;1.55;1.40;;;15.00;1.00;;;;;;5114056;28;20048;-85
2023/04/09 09:38:57;;;;;;;1.63;1.52;;;15.10;99.90;;;;;;5097142;28;20552;-85
2023/04/09 09:41:23;;;;;;;1.00;0.88;;;15.30;99.90;;;;;;5114431;28;20067;-85
2023/04/09 09:43:49;;;;;;;0.32;0.32;;;15.60;99.90;;;;;;5097163;28;20479;-85
2023/04/09 09:46:16;;;;;;;1.23;1.13;;;15.50;99.90;;;;;;5096767;28;20036;-85
2023/04/09 09:48:43;;;;;;;4.55;1.92;;;15.50;99.90;;;;;;5114023;28;20082;-85
2023/04/09 09:51:11;;;;;;;2.05;1.58;;;15.60;99.90;;;;;;5096753;28;20052;-85
2023/04/09 09:53:46;;;;;;;1.20;1.08;;;15.70;99.90;;;;;;5096930;28;20051;-85
2023/04/09 09:56:20;;;;;;;1.35;1.02;;;15.60;99.90;;;;;;5114218;28;20048;-85
2023/04/09 09:58:55;;;;;;;1.30;0.73;;;16.00;99.90;;;;;;5113701;28;20083;-85
2023/04/09 10:01:25;;;;;;;2.05;1.50;;;16.00;99.90;;;;;;5113688;28;20483;-85
2023/04/09 10:03:52;;;;;;;2.08;1.02;;;15.80;99.90;;;;;;5113585;28;20056;-85
2023/04/09 10:06:18;;;;;;;1.90;1.80;;;15.70;99.90;;;;;;5096890;28;20143;-85
2023/04/09 10:08:47;;;;;;;3.08;1.17;;;15.60;26.60;;;;;;5096419;28;20059;-85
2023/04/09 10:11:13;;;;;;;0.88;0.88;;;15.50;1.00;;;;;;5097214;28;20094;-85
2023/04/09 10:13:59;;;;;;;1.77;1.65;;;15.60;20.30;;;;;;5096735;28;20087;-84
2023/04/09 10:16:26;;;;;;;2.53;0.68;;;15.70;99.90;;;;;;5112645;28;20047;-85
2023/04/09 10:18:57;;;;;;;1.05;0.88;;;16.10;51.20;;;;;;5113541;28;20044;-85
2023/04/09 10:21:40;;;;;;;0.63;0.60;;;16.20;27.70;;;;;;5113641;28;20446;-85
2023/04/09 10:24:08;;;;;;;2.65;1.42;;;16.30;1.00;;;;;;5113388;28;20043;-85
2023/04/09 10:26:35;;;;;;;0.75;0.60;;;16.30;1.00;;;;;;5113150;28;20051;-85
2023/04/09 10:29:12;;;;;;;1.55;0.85;;;16.30;1.00;;;;;;5113231;28;20047;-85
2023/04/09 10:31:46;;;;;;;1.40;1.30;;;16.20;99.90;;;;;;5113448;28;20044;-86
2023/04/09 10:34:15;;;;;;;1.20;1.10;;;16.10;99.90;;;;;;5096343;28;20530;-85
2023/04/09 10:36:44;;;;;;;3.15;1.83;;;16.40;99.90;;;;;;5113237;28;20047;-85
2023/04/09 10:39:13;;;;;;;0.82;0.75;;;16.60;99.90;;;;;;5113207;28;20044;-85
2023/04/09 10:41:41;;;;;;;0.43;0.43;;;17.10;99.90;;;;;;5096176;28;20055;-85
2023/04/09 10:44:26;;;;;;;5.68;0.82;;;17.30;99.90;;;;;;5096254;28;20093;-85
2023/04/09 10:46:53;;;;;;;;;;;16.90;99.90;;;;;;5114524;28;20054;-85
2023/04/09 10:49:21;;;;;;;1.45;1.35;;;16.80;99.90;;;;;;5096005;28;19926;-85
2023/04/09 10:51:52;;;;;;;2.72;2.08;;;16.80;99.90;;;;;;5112869;28;20487;-85
2023/04/09 10:54:33;;;;;;;0.98;0.98;;;16.60;67.40;;;;;;5112895;28;20052;-85
2023/04/09 10:57:19;;;;;;;0.40;0.40;;;16.70;1.00;;;;;;5113013;28;20052;-85
2023/04/09 10:59:53;;;;;;;2.33;1.27;;;17.00;99.90;;;;;;5095892;28;20055;-86
2023/04/09 11:02:28;;;;;;;1.25;1.17;;;16.90;99.90;;;;;;5113307;28;20059;-86
2023/04/09 11:05:15;;;;;;;0.73;0.73;;;16.70;99.90;;;;;;5095959;28;20051;-86
2023/04/09 11:07:48;;;;;;;0.50;0.50;;;16.60;99.90;;;;;;5113092;28;20052;-86
2023/04/09 11:10:14;;;;;;;1.17;0.40;;;16.60;1.00;;;;;;5114521;28;20051;-86
2023/04/09 11:12:40;;;;;;;1.23;0.63;;;16.50;1.00;;;;;;5099929;28;20082;-86
2023/04/09 11:15:14;;;;;;;0.40;0.40;;;16.50;7.40;;;;;;5082864;28;20043;-86
2023/04/09 11:17:40;;;;;;;6.80;3.22;;;16.60;99.90;;;;;;5117973;28;20052;-86
2023/04/09 11:20:06;;;;;;;3.72;1.27;;;16.80;1.00;;;;;;5099773;28;20066;-86
2023/04/09 11:22:32;;;;;;;0.52;0.52;;;16.90;1.00;;;;;;5099814;28;20058;-86
2023/04/09 11:24:58;;;;;;;4.07;1.45;;;17.00;99.90;;;;;;5099469;28;20479;-86
2023/04/09 11:27:24;;;;;;;3.03;0.65;;;17.20;99.90;;;;;;5116797;28;20050;-86
2023/04/09 11:29:55;;;;;;;3.80;1.02;;;17.20;99.90;;;;;;5082706;28;20050;-86
2023/04/09 11:32:20;;;;;;;2.72;0.82;;;17.20;46.20;;;;;;5116425;28;20140;-86
2023/04/09 11:34:46;;;;;;;3.83;1.75;;;17.00;99.90;;;;;;5116598;28;20087;-87
2023/04/09 11:37:15;;;;;;;2.40;0.77;;;17.00;99.90;;;;;;5099497;28;20529;-86
2023/04/09 11:39:45;;;;;;;1.40;0.90;;;16.90;99.90;;;;;;5116252;28;20059;-86
2023/04/09 11:42:14;;;;;;;3.05;1.55;;;16.90;99.90;;;;;;5116703;28;20039;-86
2023/04/09 11:44:40;;;;;;;0.45;0.45;;;17.20;99.90;;;;;;5116074;28;20491;-86
2023/04/09 11:47:08;;;;;;;2.80;1.52;;;17.30;1.00;;;;;;5116376;28;20107;-86
2023/04/09 11:49:34;;;;;;;0.45;0.45;;;17.30;99.90;;;;;;5099407;28;20051;-86
2023/04/09 11:52:02;;;;;;;0.63;0.63;;;17.10;99.90;;;;;;5116162;28;20036;-86
2023/04/09 11:54:34;;;;;;;0.40;0.40;;;16.80;1.00;;;;;;5116415;28;20659;-86
2023/04/09 11:57:02;;;;;;;2.17;0.60;;;17.10;99.90;;;;;;5116627;28;20126;-86
2023/04/09 11:59:28;;;;;;;1.15;1.00;;;17.20;99.90;;;;;;5116254;28;20043;-87
2023/04/09 12:01:57;;;;;;;0.75;0.50;;;16.90;99.90;;;;;;5082254;28;20043;-86
2023/04/09 12:04:23;;;;;;;0.38;0.30;;;17.10;99.90;;;;;;5116063;28;20039;-86
2023/04/09 12:06:48;;;;;;;0.60;0.60;;;17.00;33.10;;;;;;5116068;28;20088;-86
2023/04/09 12:09:15;;;;;;;0.57;0.57;;;16.90;84.20;;;;;;5098941;28;20372;-86
2023/04/09 12:11:45;;;;;;;0.65;0.65;;;16.90;44.10;;;;;;5099274;28;20043;-86
2023/04/09 12:14:15;;;;;;;1.17;0.75;;;16.70;99.90;;;;;;5116103;28;20047;-86
2023/04/09 12:16:43;;;;;;;0.68;0.60;;;17.10;99.90;;;;;;5115647;28;20059;-86
2023/04/09 12:19:10;;;;;;;0.75;0.50;;;17.60;99.90;;;;;;5099340;28;20052;-86
2023/04/09 12:21:46;;;;;;;0.50;0.50;;;17.80;8.80;;;;;;5098183;28;20059;-86
2023/04/09 12:24:13;;;;;;;1.05;0.80;;;17.90;99.90;;;;;;5116295;28;20391;-86
2023/04/09 12:26:38;;;;;;;1.10;0.60;;;17.70;99.90;;;;;;5115804;28;20043;-86
2023/04/09 12:29:04;;;;;;;0.30;0.30;;;17.50;99.90;;;;;;5115300;28;20047;-87
2023/04/09 12:31:30;;;;;;;0.93;0.93;;;17.60;99.90;;;;;;5078903;28;20044;-89
2023/04/09 12:33:55;;;;;;;2.53;0.40;;;17.70;99.90;;;;;;5078779;28;20076;-87
2023/04/09 12:36:22;;;;;;;1.33;1.23;;;17.40;88.20;;;;;;5095869;28;20040;-86
2023/04/09 12:38:48;;;;;;;1.95;1.10;;;17.60;99.90;;;;;;5078693;28;20040;-86
2023/04/09 12:41:14;;;;;;;5.43;1.67;;;17.50;16.50;;;;;;5078269;28;20063;-86
2023/04/09 12:43:42;;;;;;;0.32;0.32;;;17.70;1.00;;;;;;5078071;28;20048;-87
2023/04/09 12:46:08;;;;;;;0.47;0.47;;;17.90;1.00;;;;;;5077910;28;20051;-86
2023/04/09 12:48:34;;;;;;;3.20;0.52;;;18.20;1.00;;;;;;5061358;28;20441;-87
2023/04/09 12:51:00;;;;;;;0.38;0.38;;;18.40;99.90;;;;;;5077403;28;20040;-86
2023/04/09 12:53:26;;;;;;;0.57;0.20;;;18.60;99.90;;;;;;5078129;28;20051;-87
2023/04/09 12:55:52;;;;;;;0.28;0.28;;;18.40;99.90;;;;;;5077947;28;20154;-86
2023/04/09 12:58:18;;;;;;;0.90;0.52;;;18.20;99.90;;;;;;5094863;28;20154;-86